Time;durP1;ratioP1;P1;durP2;ratioP2;P2;SDS_P1;SDS_P2;PMS_P1;PMS_P2;Temp;Humidity;BMP_temperature;BMP_pressure;BME280_temperature;BME280_humidity;BME280_pressure;Samples;Min_cycle;Max_cycle;Signal;HPM_P1;HPM_P2
2023/04/21 00:00:07;;;;;;;51.90;28.57;;;;;;;;;;5094032;28;20485;-74
2023/04/21 00:02:38;;;;;;;59.43;30.80;;;;;;;;;;5093790;28;20471;-74
2023/04/21 00:05:06;;;;;;;52.57;29.40;;;;;;;;;;5093753;28;20486;-74
2023/04/21 00:07:34;;;;;;;50.13;28.63;;;;;;;;;;5093804;28;20454;-74
2023/04/21 00:10:01;;;;;;;54.20;28.93;;;;;;;;;;5094010;28;20935;-74
2023/04/21 00:12:28;;;;;;;54.47;27.33;;;;;;;;;;5093673;28;20466;-74
2023/04/21 00:14:55;;;;;;;51.27;26.77;;;;;;;;;;5093574;28;20833;-74
2023/04/21 00:17:23;;;;;;;53.57;28.23;;;;;;;;;;5093565;28;20455;-74
2023/04/21 00:19:51;;;;;;;55.07;28.90;;;;;;;;;;5093773;28;20839;-74
2023/04/21 00:22:18;;;;;;;60.10;30.80;;;;;;;;;;5093404;28;21054;-74
2023/04/21 00:24:45;;;;;;;49.07;27.60;;;;;;;;;;5093385;28;20489;-74
2023/04/21 00:27:12;;;;;;;58.90;28.80;;;;;;;;;;5093579;28;20840;-74
2023/04/21 00:29:39;;;;;;;54.73;27.93;;;;;;;;;;5093480;28;20453;-74
2023/04/21 00:32:08;;;;;;;44.30;26.00;;;;;;;;;;5093478;28;20509;-74
2023/04/21 00:34:37;;;;;;;50.03;25.50;;;;;;;;;;5093351;28;20450;-75
2023/04/21 00:37:04;;;;;;;47.60;25.83;;;;;;;;;;5093474;28;20493;-74
2023/04/21 00:39:31;;;;;;;51.37;27.23;;;;;;;;;;5093353;28;20832;-74
2023/04/21 00:41:58;;;;;;;47.50;26.90;;;;;;;;;;5093397;28;20474;-74
2023/04/21 00:44:25;;;;;;;51.77;26.13;;;;;;;;;;5092934;28;20455;-74
2023/04/21 00:46:53;;;;;;;56.63;28.60;;;;;;;;;;5093352;28;20454;-74
2023/04/21 00:49:20;;;;;;;51.57;27.60;;;;;;;;;;5093251;28;20473;-74
2023/04/21 00:51:48;;;;;;;44.77;24.17;;;;;;;;;;5093312;28;20462;-74
2023/04/21 00:54:16;;;;;;;61.33;25.87;;;;;;;;;;5093163;28;20884;-74
2023/04/21 00:56:43;;;;;;;55.80;28.77;;;;;;;;;;5093279;28;20950;-74
2023/04/21 00:59:10;;;;;;;60.07;26.43;;;;;;;;;;5092993;28;20461;-74
2023/04/21 01:01:38;;;;;;;54.07;24.40;;;;;;;;;;5093058;28;20505;-74
2023/04/21 01:04:06;;;;;;;50.60;27.60;;;;;;;;;;5092961;28;20493;-74
2023/04/21 01:06:34;;;;;;;58.33;27.60;;;;;;;;;;5094070;28;20493;-74
2023/04/21 01:09:03;;;;;;;48.47;25.33;;;;;;;;;;5099877;28;20477;-74
2023/04/21 01:11:31;;;;;;;49.47;26.27;;;;;;;;;;5099743;28;20447;-74
2023/04/21 01:13:58;;;;;;;48.70;27.77;;;;;;;;;;5099757;28;20462;-72
2023/04/21 01:16:25;;;;;;;65.67;29.87;;;;;;;;;;5099601;28;20446;-73
2023/04/21 01:18:53;;;;;;;46.70;23.63;;;;;;;;;;5099722;28;20458;-73
2023/04/21 01:21:20;;;;;;;49.13;26.97;;;;;;;;;;5099070;28;20451;-73
2023/04/21 01:23:49;;;;;;;51.70;27.47;;;;;;;;;;5099584;28;20541;-73
2023/04/21 01:26:19;;;;;;;55.33;26.67;;;;;;;;;;5099582;28;20999;-73
2023/04/21 01:28:47;;;;;;;52.50;28.20;;;;;;;;;;5099684;28;20459;-72
2023/04/21 01:31:14;;;;;;;50.20;26.53;;;;;;;;;;5099501;28;20508;-73
2023/04/21 01:33:42;;;;;;;59.03;27.70;;;;;;;;;;5099427;28;20458;-73
2023/04/21 01:36:09;;;;;;;52.53;26.83;;;;;;;;;;5099503;28;20451;-73
2023/04/21 01:38:38;;;;;;;61.60;28.40;;;;;;;;;;5099440;28;20450;-72
2023/04/21 01:41:07;;;;;;;58.87;24.93;;;;;;;;;;5099594;28;20493;-72
2023/04/21 01:43:34;;;;;;;60.17;29.77;;;;;;;;;;5099139;28;20558;-73
2023/04/21 01:46:01;;;;;;;53.10;27.60;;;;;;;;;;5099507;28;21006;-72
2023/04/21 01:48:28;;;;;;;56.80;24.20;;;;;;;;;;5099477;28;20805;-73
2023/04/21 01:50:56;;;;;;;62.80;26.03;;;;;;;;;;5099500;28;20486;-74
2023/04/21 01:53:25;;;;;;;52.83;29.07;;;;;;;;;;5099106;28;20554;-73
2023/04/21 01:55:52;;;;;;;50.73;26.77;;;;;;;;;;5099467;28;20834;-73
2023/04/21 01:58:21;;;;;;;51.73;24.70;;;;;;;;;;5099294;28;20469;-73
2023/04/21 02:00:48;;;;;;;50.00;26.37;;;;;;;;;;5099311;28;20549;-72
2023/04/21 02:03:15;;;;;;;51.70;25.50;;;;;;;;;;5099165;28;20469;-74
2023/04/21 02:05:42;;;;;;;52.97;25.60;;;;;;;;;;5099020;28;21013;-73
2023/04/21 02:08:09;;;;;;;81.73;38.90;;;;;;;;;;5099180;28;20455;-74
2023/04/21 02:10:37;;;;;;;65.63;30.33;;;;;;;;;;5099148;28;20460;-72
2023/04/21 02:13:04;;;;;;;65.80;28.30;;;;;;;;;;5099272;28;20801;-72
2023/04/21 02:15:32;;;;;;;62.03;28.77;;;;;;;;;;5098958;28;20467;-72
2023/04/21 02:17:59;;;;;;;59.77;28.53;;;;;;;;;;5098113;28;20462;-73
2023/04/21 02:20:26;;;;;;;57.70;29.00;;;;;;;;;;5095222;28;20462;-72
2023/04/21 02:22:54;;;;;;;60.73;31.07;;;;;;;;;;5095332;28;20478;-72
2023/04/21 02:25:21;;;;;;;70.17;33.67;;;;;;;;;;5095570;28;21064;-73
2023/04/21 02:27:48;;;;;;;59.60;33.23;;;;;;;;;;5095945;28;20451;-73
2023/04/21 02:30:15;;;;;;;52.87;26.67;;;;;;;;;;5095896;28;20466;-72
2023/04/21 02:32:44;;;;;;;61.57;26.77;;;;;;;;;;5095736;28;21047;-72
2023/04/21 02:35:11;;;;;;;54.27;28.20;;;;;;;;;;5095229;28;20442;-73
2023/04/21 02:37:38;;;;;;;66.60;30.50;;;;;;;;;;5095663;28;20461;-72
2023/04/21 02:40:06;;;;;;;57.27;27.10;;;;;;;;;;5095703;28;20497;-72
2023/04/21 02:42:33;;;;;;;55.80;29.27;;;;;;;;;;5095430;28;20478;-72
2023/04/21 02:45:01;;;;;;;65.70;28.57;;;;;;;;;;5095421;28;20447;-73
2023/04/21 02:47:28;;;;;;;58.27;27.60;;;;;;;;;;5095399;28;20453;-73
2023/04/21 02:49:56;;;;;;;68.63;28.97;;;;;;;;;;5095512;28;20529;-72
2023/04/21 02:52:23;;;;;;;51.97;27.87;;;;;;;;;;5095205;28;20469;-73
2023/04/21 02:54:51;;;;;;;46.33;25.60;;;;;;;;;;5095205;28;20447;-73
2023/04/21 02:57:18;;;;;;;50.97;26.03;;;;;;;;;;5095001;28;20548;-75
2023/04/21 02:59:45;;;;;;;69.47;33.30;;;;;;;;;;5095294;28;20449;-73
2023/04/21 03:02:12;;;;;;;48.27;26.67;;;;;;;;;;5095069;28;20481;-73
2023/04/21 03:04:39;;;;;;;41.93;22.77;;;;;;;;;;5095177;28;20451;-72
2023/04/21 03:07:12;;;;;;;46.63;24.50;;;;;;;;;;5095252;28;20490;-72
2023/04/21 03:09:39;;;;;;;43.40;22.50;;;;;;;;;;5095175;28;20454;-73
2023/04/21 03:12:06;;;;;;;47.73;24.10;;;;;;;;;;5094881;28;20839;-73
2023/04/21 03:14:33;;;;;;;40.47;21.50;;;;;;;;;;5094647;28;20454;-73
2023/04/21 03:17:00;;;;;;;34.70;20.87;;;;;;;;;;5094885;28;20462;-72
2023/04/21 03:19:28;;;;;;;41.30;22.60;;;;;;;;;;5094786;28;20450;-72
2023/04/21 03:21:55;;;;;;;40.93;20.43;;;;;;;;;;5094314;28;20979;-72
2023/04/21 03:24:25;;;;;;;43.13;20.33;;;;;;;;;;5094535;28;20455;-72
2023/04/21 03:26:52;;;;;;;31.83;19.23;;;;;;;;;;5094660;28;20564;-72
2023/04/21 03:29:19;;;;;;;43.90;22.97;;;;;;;;;;5094609;28;20481;-73
2023/04/21 03:31:46;;;;;;;31.43;17.80;;;;;;;;;;5094342;28;21014;-73
2023/04/21 03:34:13;;;;;;;33.63;20.67;;;;;;;;;;5094001;28;20466;-73
2023/04/21 03:36:41;;;;;;;34.17;19.70;;;;;;;;;;5094563;28;20439;-73
2023/04/21 03:39:08;;;;;;;38.23;19.13;;;;;;;;;;5094381;28;20454;-73
2023/04/21 03:41:36;;;;;;;39.43;20.33;;;;;;;;;;5094174;28;20983;-73
2023/04/21 03:44:03;;;;;;;45.93;21.43;;;;;;;;;;5094283;28;20546;-72
2023/04/21 03:46:31;;;;;;;33.40;20.10;;;;;;;;;;5094606;28;21014;-72
2023/04/21 03:48:58;;;;;;;35.93;20.07;;;;;;;;;;5094395;28;20455;-72
2023/04/21 03:51:26;;;;;;;37.00;20.57;;;;;;;;;;5094287;28;20503;-72
2023/04/21 03:53:53;;;;;;;33.17;20.47;;;;;;;;;;5094137;28;20558;-72
2023/04/21 03:56:20;;;;;;;38.17;21.60;;;;;;;;;;5094097;28;20453;-73
2023/04/21 03:58:49;;;;;;;41.47;19.57;;;;;;;;;;5094106;28;20470;-73
2023/04/21 04:01:16;;;;;;;40.43;20.40;;;;;;;;;;5094059;28;20963;-72
2023/04/21 04:03:44;;;;;;;40.87;22.00;;;;;;;;;;5094106;28;20889;-72
2023/04/21 04:06:11;;;;;;;34.50;18.47;;;;;;;;;;5093794;28;20539;-72
2023/04/21 04:08:38;;;;;;;35.10;19.90;;;;;;;;;;5093881;28;20880;-72
2023/04/21 04:11:05;;;;;;;38.00;22.23;;;;;;;;;;5093945;28;20459;-72
2023/04/21 04:13:32;;;;;;;43.00;23.33;;;;;;;;;;5093582;28;20466;-71
2023/04/21 04:16:01;;;;;;;40.23;21.87;;;;;;;;;;5093668;28;20451;-72
2023/04/21 04:18:28;;;;;;;32.50;21.03;;;;;;;;;;5093640;28;20447;-72
2023/04/21 04:20:55;;;;;;;33.60;18.00;;;;;;;;;;5093299;28;20451;-72
2023/04/21 04:23:22;;;;;;;32.87;19.60;;;;;;;;;;5093629;28;20478;-72
2023/04/21 04:25:50;;;;;;;36.37;20.13;;;;;;;;;;5093297;28;20447;-72
2023/04/21 04:28:17;;;;;;;36.47;19.27;;;;;;;;;;5093613;28;20454;-72
2023/04/21 04:30:45;;;;;;;38.93;25.23;;;;;;;;;;5093548;28;20446;-72
2023/04/21 04:33:13;;;;;;;37.50;21.70;;;;;;;;;;5093334;28;20470;-72
2023/04/21 04:35:40;;;;;;;43.10;24.07;;;;;;;;;;5093583;28;20450;-72
2023/04/21 04:38:07;;;;;;;31.93;20.17;;;;;;;;;;5093319;28;20475;-72
2023/04/21 04:40:34;;;;;;;29.43;18.10;;;;;;;;;;5110694;28;20438;-73
2023/04/21 04:43:02;;;;;;;26.57;16.30;;;;;;;;;;5112940;28;20474;-72
2023/04/21 04:45:31;;;;;;;25.93;17.77;;;;;;;;;;5113676;28;20461;-72
2023/04/21 04:47:59;;;;;;;28.83;16.53;;;;;;;;;;5113514;28;20860;-72
2023/04/21 04:50:27;;;;;;;23.43;15.17;;;;;;;;;;5113531;28;20460;-72
2023/04/21 04:52:56;;;;;;;28.03;16.67;;;;;;;;;;5113514;28;20474;-72
2023/04/21 04:55:24;;;;;;;28.57;17.57;;;;;;;;;;5113418;28;20468;-72
2023/04/21 04:57:51;;;;;;;29.30;16.43;;;;;;;;;;5113367;28;20493;-73
2023/04/21 05:00:18;;;;;;;21.80;15.27;;;;;;;;;;5113358;28;20824;-73
2023/04/21 05:02:46;;;;;;;20.13;14.33;;;;;;;;;;5113250;28;20465;-73
2023/04/21 05:05:13;;;;;;;25.00;15.97;;;;;;;;;;5113163;28;20449;-72
2023/04/21 05:07:41;;;;;;;32.27;16.90;;;;;;;;;;5113039;28;20489;-73
2023/04/21 05:10:09;;;;;;;26.07;16.50;;;;;;;;;;5112555;28;20469;-73
2023/04/21 05:12:36;;;;;;;26.30;17.50;;;;;;;;;;5112967;28;20469;-73
2023/04/21 05:15:03;;;;;;;25.80;16.97;;;;;;;;;;5112954;28;20832;-73
2023/04/21 05:17:31;;;;;;;27.63;16.97;;;;;;;;;;5113064;28;20858;-73
2023/04/21 05:20:01;;;;;;;26.23;17.70;;;;;;;;;;5111352;28;20489;-73
2023/04/21 05:22:31;;;;;;;28.37;17.30;;;;;;;;;;5110981;28;20508;-72
2023/04/21 05:25:00;;;;;;;24.90;16.60;;;;;;;;;;5112295;28;20473;-73
2023/04/21 05:27:27;;;;;;;21.30;15.10;;;;;;;;;;5113004;28;20508;-73
2023/04/21 05:29:54;;;;;;;24.37;16.90;;;;;;;;;;5113059;28;20456;-73
2023/04/21 05:32:21;;;;;;;32.23;23.13;;;;;;;;;;5113007;28;20538;-73
2023/04/21 05:34:48;;;;;;;31.50;20.80;;;;;;;;;;5112850;28;20460;-72
2023/04/21 05:37:15;;;;;;;30.03;19.70;;;;;;;;;;5113108;28;20449;-73
2023/04/21 05:39:42;;;;;;;32.80;18.70;;;;;;;;;;5113108;28;20446;-73
2023/04/21 05:42:11;;;;;;;20.07;15.33;;;;;;;;;;5112911;28;20798;-73
2023/04/21 05:44:38;;;;;;;25.53;17.40;;;;;;;;;;5112837;28;20450;-73
2023/04/21 05:47:06;;;;;;;28.23;15.00;;;;;;;;;;5112906;28;21020;-73
2023/04/21 05:49:33;;;;;;;22.27;14.67;;;;;;;;;;5112921;28;20445;-73
2023/04/21 05:52:01;;;;;;;19.63;13.40;;;;;;;;;;5112920;28;20476;-73
2023/04/21 05:54:28;;;;;;;18.30;14.50;;;;;;;;;;5115695;28;20930;-73
2023/04/21 05:56:55;;;;;;;18.50;13.47;;;;;;;;;;5116902;28;20446;-73
2023/04/21 05:59:25;;;;;;;17.77;13.90;;;;;;;;;;5116848;28;20548;-73
2023/04/21 06:01:52;;;;;;;24.80;14.47;;;;;;;;;;5116686;28;20477;-73
2023/04/21 06:04:19;;;;;;;19.20;14.10;;;;;;;;;;5116273;28;20453;-73
2023/04/21 06:06:46;;;;;;;22.63;14.90;;;;;;;;;;5116745;28;20906;-73
2023/04/21 06:09:15;;;;;;;15.77;13.80;;;;;;;;;;5116466;28;20796;-73
2023/04/21 06:11:42;;;;;;;25.40;14.70;;;;;;;;;;5116536;28;20481;-73
2023/04/21 06:14:09;;;;;;;24.00;15.70;;;;;;;;;;5116200;28;20453;-73
2023/04/21 06:16:37;;;;;;;17.00;12.47;;;;;;;;;;5116519;28;20782;-74
2023/04/21 06:19:04;;;;;;;21.77;14.33;;;;;;;;;;5116495;28;20450;-73
2023/04/21 06:21:32;;;;;;;56.20;38.43;;;;;;;;;;5115746;28;20481;-73
2023/04/21 06:23:59;;;;;;;44.30;30.90;;;;;;;;;;5115885;28;20567;-74
2023/04/21 06:26:26;;;;;;;27.80;17.67;;;;;;;;;;5116190;28;20545;-74
2023/04/21 06:28:53;;;;;;;57.10;28.37;;;;;;;;;;5116483;28;20806;-74
2023/04/21 06:31:20;;;;;;;21.07;15.13;;;;;;;;;;5116292;28;20453;-73
2023/04/21 06:33:49;;;;;;;27.73;17.57;;;;;;;;;;5115947;28;20942;-73
2023/04/21 06:36:20;;;;;;;31.40;16.13;;;;;;;;;;5115853;28;20518;-74
2023/04/21 06:38:47;;;;;;;27.00;17.37;;;;;;;;;;5116234;28;20457;-74
2023/04/21 06:41:15;;;;;;;53.77;24.43;;;;;;;;;;5116022;28;20912;-74
2023/04/21 06:43:42;;;;;;;31.97;18.10;;;;;;;;;;5115801;28;20458;-74
2023/04/21 06:46:09;;;;;;;20.63;15.90;;;;;;;;;;5116003;28;20445;-74
2023/04/21 06:48:36;;;;;;;21.50;15.00;;;;;;;;;;5115797;28;20576;-74
2023/04/21 06:51:05;;;;;;;61.13;25.93;;;;;;;;;;5115954;28;20446;-74
2023/04/21 06:53:32;;;;;;;67.97;27.47;;;;;;;;;;5115363;28;20475;-73
2023/04/21 06:55:59;;;;;;;27.57;16.50;;;;;;;;;;5115822;28;20457;-74
2023/04/21 06:58:27;;;;;;;21.57;15.00;;;;;;;;;;5115556;28;20465;-74
2023/04/21 07:00:54;;;;;;;31.80;17.13;;;;;;;;;;5115612;28;20453;-74
2023/04/21 07:03:21;;;;;;;47.97;21.53;;;;;;;;;;5115504;28;20582;-74
2023/04/21 07:05:48;;;;;;;21.63;15.00;;;;;;;;;;5114592;28;20450;-74
2023/04/21 07:08:16;;;;;;;19.90;15.33;;;;;;;;;;5115360;28;20493;-74
2023/04/21 07:10:43;;;;;;;29.93;18.57;;;;;;;;;;5115475;28;20957;-74
2023/04/21 07:13:11;;;;;;;24.73;16.63;;;;;;;;;;5115305;28;20465;-74
2023/04/21 07:15:38;;;;;;;25.53;15.07;;;;;;;;;;5115269;28;20502;-74
2023/04/21 07:18:05;;;;;;;29.33;19.13;;;;;;;;;;5115274;28;20926;-74
2023/04/21 07:20:32;;;;;;;24.43;15.37;;;;;;;;;;5115221;28;20464;-74
2023/04/21 07:22:59;;;;;;;24.40;14.80;;;;;;;;;;5114279;28;20468;-74
2023/04/21 07:25:27;;;;;;;21.00;15.07;;;;;;;;;;5114876;28;20938;-74
2023/04/21 07:27:55;;;;;;;19.87;15.50;;;;;;;;;;5115043;28;20481;-74
2023/04/21 07:30:22;;;;;;;22.83;15.57;;;;;;;;;;5115057;28;20449;-74
2023/04/21 07:32:49;;;;;;;16.57;13.00;;;;;;;;;;5114965;28;20478;-74
2023/04/21 07:35:16;;;;;;;18.13;14.40;;;;;;;;;;5114579;28;20544;-74
2023/04/21 07:37:43;;;;;;;20.80;15.30;;;;;;;;;;5114916;28;20445;-74
2023/04/21 07:40:11;;;;;;;19.97;15.30;;;;;;;;;;5114909;28;20446;-74
2023/04/21 07:42:39;;;;;;;19.20;14.40;;;;;;;;;;5114759;28;20466;-74
2023/04/21 07:45:07;;;;;;;17.30;14.63;;;;;;;;;;5114418;28;20450;-73
2023/04/21 07:47:34;;;;;;;18.13;14.10;;;;;;;;;;5114458;28;20493;-74
2023/04/21 07:50:02;;;;;;;20.20;14.90;;;;;;;;;;5114662;28;20445;-74
2023/04/21 07:52:29;;;;;;;19.77;15.83;;;;;;;;;;5114536;28;20983;-74
2023/04/21 07:54:56;;;;;;;16.70;14.00;;;;;;;;;;5114341;28;20458;-73
2023/04/21 07:57:24;;;;;;;17.80;13.90;;;;;;;;;;5114268;28;20464;-74
2023/04/21 07:59:52;;;;;;;19.63;15.93;;;;;;;;;;5114365;28;20457;-74
2023/04/21 08:02:19;;;;;;;16.90;14.80;;;;;;;;;;5114209;28;20496;-74
2023/04/21 08:04:47;;;;;;;17.97;15.70;;;;;;;;;;5114233;28;20454;-74
2023/04/21 08:07:14;;;;;;;19.90;16.20;;;;;;;;;;5114259;28;21023;-74
2023/04/21 08:09:41;;;;;;;17.63;15.73;;;;;;;;;;5114397;28;20461;-75
2023/04/21 08:12:08;;;;;;;18.20;15.40;;;;;;;;;;5114017;28;20466;-75
2023/04/21 08:14:35;;;;;;;16.27;14.57;;;;;;;;;;5114195;28;20821;-75
2023/04/21 08:17:04;;;;;;;18.13;15.63;;;;;;;;;;5113098;28;20457;-75
2023/04/21 08:19:31;;;;;;;17.67;15.33;;;;;;;;;;5114047;28;20446;-75
2023/04/21 08:21:58;;;;;;;18.80;15.97;;;;;;;;;;5113448;28;20470;-75
2023/04/21 08:24:25;;;;;;;16.40;13.47;;;;;;;;;;5113302;28;20454;-74
2023/04/21 08:26:52;;;;;;;17.43;15.10;;;;;;;;;;5113798;28;20464;-75
2023/04/21 08:29:19;;;;;;;16.70;13.73;;;;;;;;;;5113896;28;20446;-75
2023/04/21 08:31:46;;;;;;;19.37;15.40;;;;;;;;;;5113943;28;20465;-75
2023/04/21 08:34:15;;;;;;;17.23;15.30;;;;;;;;;;5113764;28;20456;-74
2023/04/21 08:36:43;;;;;;;17.10;14.70;;;;;;;;;;5113859;28;20453;-75
2023/04/21 08:39:10;;;;;;;16.57;14.77;;;;;;;;;;5113727;28;20449;-74
2023/04/21 08:41:40;;;;;;;14.53;12.90;;;;;;;;;;5113569;28;20462;-75
2023/04/21 08:44:07;;;;;;;16.37;12.77;;;;;;;;;;5113477;28;20458;-75
2023/04/21 08:46:34;;;;;;;18.40;14.67;;;;;;;;;;5113657;28;20449;-75
2023/04/21 08:49:01;;;;;;;17.30;15.00;;;;;;;;;;5113664;28;20474;-75
2023/04/21 08:51:30;;;;;;;20.30;14.97;;;;;;;;;;5113470;28;20449;-75
2023/04/21 08:53:57;;;;;;;18.60;14.40;;;;;;;;;;5113482;28;20441;-75
2023/04/21 08:56:25;;;;;;;22.00;15.80;;;;;;;;;;5113388;28;20961;-74
2023/04/21 08:58:52;;;;;;;16.70;12.83;;;;;;;;;;5113439;28;20513;-75
2023/04/21 09:01:20;;;;;;;18.40;13.27;;;;;;;;;;5113362;28;20818;-75
2023/04/21 09:03:47;;;;;;;18.63;14.57;;;;;;;;;;5113229;28;20450;-75
2023/04/21 09:06:14;;;;;;;16.47;14.77;;;;;;;;;;5113317;28;20825;-75
2023/04/21 09:08:44;;;;;;;21.40;15.40;;;;;;;;;;5113255;28;20508;-75
2023/04/21 09:11:14;;;;;;;16.70;13.90;;;;;;;;;;5113282;28;20452;-75
2023/04/21 09:13:43;;;;;;;15.40;12.70;;;;;;;;;;5113184;28;20540;-77
2023/04/21 09:16:16;;;;;;;16.00;13.10;;;;;;;;;;5113251;28;20449;-75
2023/04/21 09:18:43;;;;;;;14.73;12.20;;;;;;;;;;5113154;28;20569;-75
2023/04/21 09:21:11;;;;;;;19.23;13.30;;;;;;;;;;5112777;28;21076;-75
2023/04/21 09:23:47;;;;;;;12.77;10.67;;;;;;;;;;5112809;28;20450;-74
2023/04/21 09:26:14;;;;;;;15.03;10.83;;;;;;;;;;5113194;28;20452;-75
2023/04/21 09:28:42;;;;;;;11.33;10.00;;;;;;;;;;5115038;28;20524;-75
2023/04/21 09:31:16;;;;;;;12.40;9.73;;;;;;;;;;5117374;28;20449;-75
2023/04/21 09:33:47;;;;;;;11.77;10.57;;;;;;;;;;5117000;28;20502;-74
2023/04/21 09:36:20;;;;;;;12.90;10.70;;;;;;;;;;5117157;28;20817;-75
2023/04/21 09:38:58;;;;;;;10.50;9.50;;;;;;;;;;5117180;28;20500;-75
2023/04/21 09:41:26;;;;;;;12.60;10.00;;;;;;;;;;5117020;28;20445;-75
2023/04/21 09:43:53;;;;;;;9.67;8.67;;;;;;;;;;5116939;28;20468;-75
2023/04/21 09:46:20;;;;;;;9.30;8.40;;;;;;;;;;5117103;28;20951;-75
2023/04/21 09:48:48;;;;;;;9.50;8.33;;;;;;;;;;5117126;28;20485;-76
2023/04/21 09:51:17;;;;;;;10.07;8.13;;;;;;;;;;5116961;28;20453;-75
2023/04/21 09:53:45;;;;;;;11.17;8.10;;;;;;;;;;5116843;28;20946;-74
2023/04/21 09:56:14;;;;;;;6.93;6.23;;;;;;;;;;5116766;28;20456;-75
2023/04/21 09:58:47;;;;;;;8.43;7.57;;;;;;;;;;5116710;28;20829;-76
2023/04/21 10:01:14;;;;;;;7.97;7.27;;;;;;;;;;5116838;28;20884;-75
2023/04/21 10:03:42;;;;;;;7.10;6.40;;;;;;;;;;5116481;28;20449;-75
2023/04/21 10:06:09;;;;;;;5.90;5.40;;;;;;;;;;5116741;28;20450;-76
2023/04/21 10:08:37;;;;;;;6.37;5.60;;;;;;;;;;5116551;28;20832;-75
2023/04/21 10:11:04;;;;;;;5.97;5.37;;;;;;;;;;5116683;28;20460;-75
2023/04/21 10:13:33;;;;;;;5.43;4.90;;;;;;;;;;5116161;28;20474;-75
2023/04/21 10:16:04;;;;;;;5.53;4.80;;;;;;;;;;5116569;28;20453;-75
2023/04/21 10:18:31;;;;;;;4.90;4.50;;;;;;;;;;5116297;28;20536;-75
2023/04/21 10:20:59;;;;;;;6.50;5.50;;;;;;;;;;5116078;28;20449;-75
2023/04/21 10:23:26;;;;;;;5.63;4.67;;;;;;;;;;5116027;28;20484;-75
2023/04/21 10:25:54;;;;;;;6.07;4.87;;;;;;;;;;5116384;28;20460;-75
2023/04/21 10:28:21;;;;;;;4.77;4.33;;;;;;;;;;5116320;28;20484;-75
2023/04/21 10:30:50;;;;;;;5.70;4.93;;;;;;;;;;5116146;28;20453;-75
2023/04/21 10:33:18;;;;;;;5.20;4.67;;;;;;;;;;5116046;28;20473;-77
2023/04/21 10:35:59;;;;;;;4.57;4.10;;;;;;;;;;5116685;28;20453;-78
2023/04/21 10:38:44;;;;;;;5.77;4.30;;;;;;;;;;5116551;28;20498;-78
2023/04/21 10:41:27;;;;;;;4.93;4.37;;;;;;;;;;5115188;28;20453;-78
2023/04/21 10:43:54;;;;;;;5.23;4.83;;;;;;;;;;5115862;28;20449;-77
2023/04/21 10:46:39;;;;;;;5.00;4.50;;;;;;;;;;5115749;28;20449;-75
2023/04/21 10:49:08;;;;;;;5.60;5.00;;;;;;;;;;5115907;28;20533;-75
2023/04/21 10:51:50;;;;;;;7.47;5.17;;;;;;;;;;5115661;28;20501;-75
2023/04/21 10:54:17;;;;;;;4.87;4.37;;;;;;;;;;5114744;28;20456;-75
2023/04/21 10:56:45;;;;;;;4.63;4.23;;;;;;;;;;5115625;28;20448;-77
2023/04/21 10:59:13;;;;;;;5.30;4.80;;;;;;;;;;5115508;28;20457;-75
2023/04/21 11:01:40;;;;;;;5.00;4.50;;;;;;;;;;5115625;28;20996;-76
2023/04/21 11:04:13;;;;;;;4.20;3.80;;;;;;;;;;5115297;28;20812;-75
2023/04/21 11:06:41;;;;;;;7.33;4.27;;;;;;;;;;5115589;28;20442;-75
2023/04/21 11:09:08;;;;;;;6.07;4.63;;;;;;;;;;5115408;28;20521;-75
2023/04/21 11:11:35;;;;;;;5.07;4.03;;;;;;;;;;5115263;28;20534;-75
2023/04/21 11:14:03;;;;;;;4.67;4.00;;;;;;;;;;5115206;28;20449;-75
2023/04/21 11:16:30;;;;;;;4.60;4.00;;;;;;;;;;5115318;28;20464;-75
2023/04/21 11:18:57;;;;;;;4.90;4.03;;;;;;;;;;5115194;28;20951;-75
2023/04/21 11:21:25;;;;;;;8.93;4.63;;;;;;;;;;5114526;28;20449;-75
2023/04/21 11:23:54;;;;;;;7.73;4.40;;;;;;;;;;5114789;28;20829;-74
2023/04/21 11:26:31;;;;;;;7.00;5.70;;;;;;;;;;5114999;28;21116;-75
2023/04/21 11:29:00;;;;;;;5.50;4.77;;;;;;;;;;5115099;28;20512;-75
2023/04/21 11:31:29;;;;;;;5.57;4.80;;;;;;;;;;5114843;28;20545;-75
2023/04/21 11:33:57;;;;;;;5.23;4.73;;;;;;;;;;5114993;28;21006;-75
2023/04/21 11:36:26;;;;;;;11.43;3.97;;;;;;;;;;5114681;28;20453;-75
2023/04/21 11:38:53;;;;;;;5.23;4.07;;;;;;;;;;5114903;28;20453;-76
2023/04/21 11:41:23;;;;;;;5.97;4.40;;;;;;;;;;5114707;28;20453;-77
2023/04/21 11:43:51;;;;;;;4.77;4.10;;;;;;;;;;5114568;28;20445;-75
2023/04/21 11:46:19;;;;;;;4.10;3.70;;;;;;;;;;5114571;28;20446;-75
2023/04/21 11:48:46;;;;;;;4.10;3.70;;;;;;;;;;5114606;28;20485;-75
2023/04/21 11:51:17;;;;;;;3.90;3.40;;;;;;;;;;5114232;28;20472;-75
2023/04/21 11:53:48;;;;;;;7.40;3.47;;;;;;;;;;5114510;28;20454;-74
2023/04/21 11:56:18;;;;;;;4.70;3.93;;;;;;;;;;5114564;28;20449;-75
2023/04/21 11:58:46;;;;;;;4.47;3.67;;;;;;;;;;5114372;28;20503;-76
2023/04/21 12:01:16;;;;;;;3.00;2.80;;;;;;;;;;5114267;28;20452;-75
2023/04/21 12:03:43;;;;;;;3.60;3.30;;;;;;;;;;5114214;28;20450;-75
2023/04/21 12:06:10;;;;;;;5.00;3.60;;;;;;;;;;5114364;28;20474;-75
2023/04/21 12:08:37;;;;;;;3.70;3.10;;;;;;;;;;5114271;28;20496;-76
2023/04/21 12:11:05;;;;;;;5.33;4.20;;;;;;;;;;5114413;28;20449;-75
2023/04/21 12:13:34;;;;;;;5.57;3.73;;;;;;;;;;5113944;28;20465;-75
2023/04/21 12:16:03;;;;;;;3.37;3.00;;;;;;;;;;5114308;28;20904;-76
2023/04/21 12:18:32;;;;;;;2.90;2.70;;;;;;;;;;5113924;28;20446;-76
2023/04/21 12:21:01;;;;;;;3.50;3.20;;;;;;;;;;5113828;28;20457;-75
2023/04/21 12:23:29;;;;;;;2.90;2.70;;;;;;;;;;5113575;28;20909;-74
2023/04/21 12:25:56;;;;;;;3.83;3.00;;;;;;;;;;5114111;28;20498;-76
2023/04/21 12:28:24;;;;;;;2.97;2.67;;;;;;;;;;5113895;28;20943;-76
2023/04/21 12:30:51;;;;;;;5.67;4.40;;;;;;;;;;5114044;28;21013;-75
2023/04/21 12:33:19;;;;;;;3.33;3.03;;;;;;;;;;5113720;28;20466;-75
2023/04/21 12:35:46;;;;;;;2.53;2.27;;;;;;;;;;5113652;28;20456;-75
2023/04/21 12:38:13;;;;;;;3.50;2.70;;;;;;;;;;5113806;28;20864;-75
2023/04/21 12:40:40;;;;;;;3.40;3.10;;;;;;;;;;5113835;28;20452;-75
2023/04/21 12:43:07;;;;;;;5.87;3.10;;;;;;;;;;5113729;28;20502;-75
2023/04/21 12:45:36;;;;;;;3.20;2.90;;;;;;;;;;5113493;28;20824;-75
2023/04/21 12:48:04;;;;;;;3.03;2.70;;;;;;;;;;5113917;28;20475;-76
2023/04/21 12:50:31;;;;;;;3.43;2.60;;;;;;;;;;5113850;28;20923;-76
2023/04/21 12:52:58;;;;;;;3.20;2.90;;;;;;;;;;5113658;28;20469;-75
2023/04/21 12:55:25;;;;;;;6.57;2.93;;;;;;;;;;5113423;28;20446;-75
2023/04/21 12:57:53;;;;;;;4.63;2.83;;;;;;;;;;5113461;28;20959;-75
2023/04/21 13:00:20;;;;;;;2.80;2.40;;;;;;;;;;5113342;28;20548;-75
2023/04/21 13:02:48;;;;;;;3.17;2.87;;;;;;;;;;5112823;28;21002;-75
2023/04/21 13:05:15;;;;;;;3.53;2.50;;;;;;;;;;5113108;28;20457;-75
2023/04/21 13:07:42;;;;;;;3.07;2.80;;;;;;;;;;5113567;28;20536;-75
2023/04/21 13:10:10;;;;;;;2.80;2.33;;;;;;;;;;5113306;28;21010;-75
2023/04/21 13:12:37;;;;;;;6.77;3.43;;;;;;;;;;5113075;28;20473;-75
2023/04/21 13:15:05;;;;;;;3.60;3.10;;;;;;;;;;5113319;28;20514;-75
2023/04/21 13:17:32;;;;;;;3.67;3.10;;;;;;;;;;5113289;28;20931;-75
2023/04/21 13:20:01;;;;;;;4.80;2.90;;;;;;;;;;5113278;28;20445;-75
2023/04/21 13:22:28;;;;;;;6.33;2.90;;;;;;;;;;5112344;28;20504;-75
2023/04/21 13:24:55;;;;;;;3.47;3.17;;;;;;;;;;5113004;28;20450;-75
2023/04/21 13:27:22;;;;;;;4.50;3.30;;;;;;;;;;5113312;28;20461;-76
2023/04/21 13:29:49;;;;;;;2.80;2.40;;;;;;;;;;5113177;28;20489;-75
2023/04/21 13:32:16;;;;;;;3.37;3.07;;;;;;;;;;5113508;28;20829;-75
2023/04/21 13:34:44;;;;;;;3.80;2.60;;;;;;;;;;5113010;28;20454;-75
2023/04/21 13:37:14;;;;;;;4.03;3.23;;;;;;;;;;5113062;28;20457;-75
2023/04/21 13:39:42;;;;;;;4.30;3.20;;;;;;;;;;5113223;28;20449;-75
2023/04/21 13:42:09;;;;;;;3.70;3.40;;;;;;;;;;5112935;28;20560;-76
2023/04/21 13:44:36;;;;;;;3.10;2.77;;;;;;;;;;5112915;28;20541;-75
2023/04/21 13:47:04;;;;;;;3.60;2.70;;;;;;;;;;5113163;28;20446;-75
2023/04/21 13:49:31;;;;;;;3.10;2.80;;;;;;;;;;5112783;28;20572;-75
2023/04/21 13:51:58;;;;;;;3.57;3.03;;;;;;;;;;5113050;28;20850;-75
2023/04/21 13:54:27;;;;;;;7.77;3.70;;;;;;;;;;5112742;28;20446;-75
2023/04/21 13:56:54;;;;;;;4.30;3.17;;;;;;;;;;5113061;28;20540;-75
2023/04/21 13:59:21;;;;;;;6.40;2.97;;;;;;;;;;5112754;28;20454;-75
2023/04/21 14:01:48;;;;;;;6.90;3.73;;;;;;;;;;5112752;28;20486;-75
2023/04/21 14:04:15;;;;;;;5.07;3.10;;;;;;;;;;5112663;28;20446;-75
2023/04/21 14:06:42;;;;;;;2.90;2.60;;;;;;;;;;5112986;28;20950;-75
2023/04/21 14:09:10;;;;;;;4.00;3.40;;;;;;;;;;5112862;28;21025;-75
2023/04/21 14:11:39;;;;;;;3.00;2.70;;;;;;;;;;5112910;28;20477;-76
2023/04/21 14:14:06;;;;;;;3.27;2.67;;;;;;;;;;5113544;28;20485;-75
2023/04/21 14:16:33;;;;;;;3.90;3.50;;;;;;;;;;5116303;28;20464;-75
2023/04/21 14:19:00;;;;;;;3.30;2.50;;;;;;;;;;5116659;28;20460;-75
2023/04/21 14:21:27;;;;;;;5.50;3.13;;;;;;;;;;5115870;28;20453;-75
2023/04/21 14:23:54;;;;;;;3.10;2.80;;;;;;;;;;5116112;28;20454;-75
2023/04/21 14:26:22;;;;;;;3.30;2.97;;;;;;;;;;5116285;28;20454;-75
2023/04/21 14:28:51;;;;;;;4.70;3.67;;;;;;;;;;5116436;28;20453;-75